sensor_id;sensor_type;location;lat;lon;timestamp;pressure;altitude;pressure_sealevel;temperature;humidity
19576;BME280;41589;51.196;7.074;2024-02-26T00:02:09;97174.09;;;9.64;53.66
19576;BME280;41589;51.196;7.074;2024-02-26T00:07:09;97170.06;;;9.71;53.44
19576;BME280;41589;51.196;7.074;2024-02-26T00:12:09;97173.91;;;9.73;53.46
19576;BME280;41589;51.196;7.074;2024-02-26T00:17:10;97164.97;;;9.75;53.48
19576;BME280;41589;51.196;7.074;2024-02-26T00:22:10;97184.19;;;9.82;53.50
19576;BME280;41589;51.196;7.074;2024-02-26T00:27:10;97169.59;;;9.78;53.42
19576;BME280;41589;51.196;7.074;2024-02-26T00:32:11;97174.22;;;9.81;53.20
19576;BME280;41589;51.196;7.074;2024-02-26T00:37:11;97173.75;;;9.88;53.38
19576;BME280;41589;51.196;7.074;2024-02-26T00:42:11;97177.81;;;9.87;52.97
19576;BME280;41589;51.196;7.074;2024-02-26T00:47:12;97168.38;;;9.90;53.21
19576;BME280;41589;51.196;7.074;2024-02-26T00:52:12;97187.50;;;9.86;52.88
19576;BME280;41589;51.196;7.074;2024-02-26T00:57:12;97186.75;;;9.85;53.00
19576;BME280;41589;51.196;7.074;2024-02-26T01:02:13;97185.75;;;9.89;53.01
19576;BME280;41589;51.196;7.074;2024-02-26T01:07:13;97191.59;;;9.85;52.98
19576;BME280;41589;51.196;7.074;2024-02-26T01:12:13;97191.38;;;9.89;52.83
19576;BME280;41589;51.196;7.074;2024-02-26T01:17:14;97182.19;;;9.94;52.81
19576;BME280;41589;51.196;7.074;2024-02-26T01:22:14;97199.28;;;9.90;52.76
19576;BME280;41589;51.196;7.074;2024-02-26T01:27:14;97184.47;;;9.95;52.80
19576;BME280;41589;51.196;7.074;2024-02-26T01:32:15;97197.78;;;9.95;52.71
19576;BME280;41589;51.196;7.074;2024-02-26T01:37:16;97196.28;;;9.99;52.81
19576;BME280;41589;51.196;7.074;2024-02-26T01:42:16;97190.13;;;10.01;52.94
19576;BME280;41589;51.196;7.074;2024-02-26T01:47:16;97189.84;;;9.93;53.15
19576;BME280;41589;51.196;7.074;2024-02-26T01:52:17;97195.72;;;9.95;52.98
19576;BME280;41589;51.196;7.074;2024-02-26T01:57:18;97193.38;;;9.82;53.30
19576;BME280;41589;51.196;7.074;2024-02-26T02:02:19;97207.44;;;9.82;53.62
19576;BME280;41589;51.196;7.074;2024-02-26T02:07:21;97200.78;;;9.85;54.32
19576;BME280;41589;51.196;7.074;2024-02-26T02:12:21;97193.03;;;9.69;54.70
19576;BME280;41589;51.196;7.074;2024-02-26T02:17:22;97184.56;;;9.64;55.75
19576;BME280;41589;51.196;7.074;2024-02-26T02:22:22;97194.00;;;9.61;56.07
19576;BME280;41589;51.196;7.074;2024-02-26T02:27:23;97187.31;;;9.52;56.54
19576;BME280;41589;51.196;7.074;2024-02-26T02:32:24;97193.94;;;9.49;57.03
19576;BME280;41589;51.196;7.074;2024-02-26T02:37:25;97190.25;;;9.32;57.96
19576;BME280;41589;51.196;7.074;2024-02-26T02:42:26;97181.31;;;9.28;58.22
19576;BME280;41589;51.196;7.074;2024-02-26T02:47:26;97171.56;;;9.18;58.68
19576;BME280;41589;51.196;7.074;2024-02-26T02:52:26;97186.03;;;9.11;59.15
19576;BME280;41589;51.196;7.074;2024-02-26T02:57:27;97176.84;;;9.05;59.23
19576;BME280;41589;51.196;7.074;2024-02-26T03:02:27;97167.41;;;9.08;59.63
19576;BME280;41589;51.196;7.074;2024-02-26T03:07:28;97171.78;;;9.14;59.80
19576;BME280;41589;51.196;7.074;2024-02-26T03:12:29;97168.97;;;9.14;59.85
19576;BME280;41589;51.196;7.074;2024-02-26T03:17:30;97177.88;;;9.13;60.02
19576;BME280;41589;51.196;7.074;2024-02-26T03:22:30;97175.06;;;9.13;60.66
19576;BME280;41589;51.196;7.074;2024-02-26T03:27:31;97168.44;;;9.10;60.69
19576;BME280;41589;51.196;7.074;2024-02-26T03:32:31;97167.13;;;9.06;60.93
19576;BME280;41589;51.196;7.074;2024-02-26T03:37:32;97163.09;;;9.12;60.84
19576;BME280;41589;51.196;7.074;2024-02-26T03:42:32;97167.31;;;8.96;61.46
19576;BME280;41589;51.196;7.074;2024-02-26T03:47:32;97176.19;;;8.89;61.52
19576;BME280;41589;51.196;7.074;2024-02-26T03:52:33;97162.44;;;8.91;61.76
19576;BME280;41589;51.196;7.074;2024-02-26T03:57:34;97163.63;;;8.79;62.30
19576;BME280;41589;51.196;7.074;2024-02-26T04:02:34;97173.84;;;8.82;61.74
19576;BME280;41589;51.196;7.074;2024-02-26T04:07:34;97173.03;;;8.76;62.23
19576;BME280;41589;51.196;7.074;2024-02-26T04:12:35;97174.38;;;8.86;62.55
19576;BME280;41589;51.196;7.074;2024-02-26T04:17:36;97172.78;;;8.74;62.42
19576;BME280;41589;51.196;7.074;2024-02-26T04:22:36;97172.72;;;8.68;62.75
19576;BME280;41589;51.196;7.074;2024-02-26T04:27:37;97177.81;;;8.70;62.73
19576;BME280;41589;51.196;7.074;2024-02-26T04:32:37;97186.13;;;8.59;62.63
19576;BME280;41589;51.196;7.074;2024-02-26T04:37:37;97188.59;;;8.51;63.81
19576;BME280;41589;51.196;7.074;2024-02-26T04:42:38;97190.75;;;8.62;63.91
19576;BME280;41589;51.196;7.074;2024-02-26T04:47:38;97192.19;;;8.52;63.19
19576;BME280;41589;51.196;7.074;2024-02-26T04:52:38;97196.59;;;8.58;63.85
19576;BME280;41589;51.196;7.074;2024-02-26T04:57:39;97197.34;;;8.59;63.58
19576;BME280;41589;51.196;7.074;2024-02-26T05:02:39;97205.00;;;8.58;63.90
19576;BME280;41589;51.196;7.074;2024-02-26T05:07:41;97194.28;;;8.57;64.33
19576;BME280;41589;51.196;7.074;2024-02-26T05:12:42;97198.88;;;8.60;64.18
19576;BME280;41589;51.196;7.074;2024-02-26T05:17:42;97193.84;;;8.38;64.54
19576;BME280;41589;51.196;7.074;2024-02-26T05:22:43;97196.63;;;8.38;65.18
19576;BME280;41589;51.196;7.074;2024-02-26T05:27:44;97212.66;;;8.32;65.07
19576;BME280;41589;51.196;7.074;2024-02-26T05:32:44;97209.66;;;8.21;65.34
19576;BME280;41589;51.196;7.074;2024-02-26T05:37:45;97215.22;;;8.15;65.67
19576;BME280;41589;51.196;7.074;2024-02-26T05:42:45;97223.38;;;8.13;65.78
19576;BME280;41589;51.196;7.074;2024-02-26T05:47:45;97214.88;;;8.07;66.41
19576;BME280;41589;51.196;7.074;2024-02-26T05:52:46;97228.97;;;8.13;66.38
19576;BME280;41589;51.196;7.074;2024-02-26T05:57:46;97234.63;;;8.19;66.51
19576;BME280;41589;51.196;7.074;2024-02-26T06:02:47;97231.50;;;8.11;66.61
19576;BME280;41589;51.196;7.074;2024-02-26T06:07:47;97231.78;;;8.13;66.79
19576;BME280;41589;51.196;7.074;2024-02-26T06:12:47;97238.16;;;8.13;66.79
19576;BME280;41589;51.196;7.074;2024-02-26T06:17:48;97238.56;;;8.06;66.79
19576;BME280;41589;51.196;7.074;2024-02-26T06:22:48;97250.00;;;8.03;67.49
19576;BME280;41589;51.196;7.074;2024-02-26T06:27:49;97248.22;;;8.05;67.29
19576;BME280;41589;51.196;7.074;2024-02-26T06:32:49;97264.28;;;8.05;67.50
19576;BME280;41589;51.196;7.074;2024-02-26T06:37:49;97273.09;;;7.98;67.60
19576;BME280;41589;51.196;7.074;2024-02-26T06:42:52;97274.63;;;7.99;67.57
19576;BME280;41589;51.196;7.074;2024-02-26T06:47:53;97271.50;;;8.11;67.64
19576;BME280;41589;51.196;7.074;2024-02-26T06:52:53;97276.53;;;8.07;67.85
19576;BME280;41589;51.196;7.074;2024-02-26T06:57:53;97288.00;;;8.09;67.78
19576;BME280;41589;51.196;7.074;2024-02-26T07:02:54;97296.56;;;8.21;68.34
19576;BME280;41589;51.196;7.074;2024-02-26T07:07:54;97290.06;;;8.29;67.87
19576;BME280;41589;51.196;7.074;2024-02-26T07:12:54;97308.28;;;8.39;67.73
19576;BME280;41589;51.196;7.074;2024-02-26T07:17:55;97303.03;;;8.27;67.87
19576;BME280;41589;51.196;7.074;2024-02-26T07:22:55;97314.47;;;8.23;67.80
19576;BME280;41589;51.196;7.074;2024-02-26T07:27:56;97310.78;;;8.17;68.58
19576;BME280;41589;51.196;7.074;2024-02-26T07:32:56;97315.41;;;8.20;68.71
19576;BME280;41589;51.196;7.074;2024-02-26T07:37:56;97313.75;;;8.28;68.80
19576;BME280;41589;51.196;7.074;2024-02-26T07:42:57;97315.78;;;8.28;68.75
19576;BME280;41589;51.196;7.074;2024-02-26T07:47:57;97327.84;;;8.34;68.76
19576;BME280;41589;51.196;7.074;2024-02-26T07:52:57;97320.63;;;8.48;69.31
19576;BME280;41589;51.196;7.074;2024-02-26T07:57:58;97341.16;;;8.59;68.81
19576;BME280;41589;51.196;7.074;2024-02-26T08:02:59;97345.28;;;8.64;68.77
19576;BME280;41589;51.196;7.074;2024-02-26T08:07:59;97347.38;;;8.69;68.79
19576;BME280;41589;51.196;7.074;2024-02-26T08:12:59;97352.72;;;8.67;68.68
19576;BME280;41589;51.196;7.074;2024-02-26T08:18:05;97347.16;;;8.73;68.62
19576;BME280;41589;51.196;7.074;2024-02-26T08:23:05;97356.69;;;8.81;68.28
19576;BME280;41589;51.196;7.074;2024-02-26T08:28:05;97371.28;;;8.85;68.49
19576;BME280;41589;51.196;7.074;2024-02-26T08:33:06;97367.75;;;8.90;68.91
19576;BME280;41589;51.196;7.074;2024-02-26T08:38:06;97372.44;;;8.98;69.09
19576;BME280;41589;51.196;7.074;2024-02-26T08:43:07;97375.53;;;9.01;68.61
19576;BME280;41589;51.196;7.074;2024-02-26T08:48:08;97384.38;;;8.93;68.85
19576;BME280;41589;51.196;7.074;2024-02-26T08:53:08;97392.88;;;8.99;68.63
19576;BME280;41589;51.196;7.074;2024-02-26T08:58:09;97407.38;;;8.97;68.85
19576;BME280;41589;51.196;7.074;2024-02-26T09:03:09;97410.69;;;8.96;68.38
19576;BME280;41589;51.196;7.074;2024-02-26T09:08:09;97413.56;;;9.02;69.41
19576;BME280;41589;51.196;7.074;2024-02-26T09:13:10;97407.94;;;9.02;68.71
19576;BME280;41589;51.196;7.074;2024-02-26T09:18:10;97416.44;;;9.07;69.25
19576;BME280;41589;51.196;7.074;2024-02-26T09:23:10;97422.09;;;9.13;69.13
19576;BME280;41589;51.196;7.074;2024-02-26T09:28:11;97414.66;;;9.10;69.82
19576;BME280;41589;51.196;7.074;2024-02-26T09:33:13;97423.63;;;9.14;69.52
19576;BME280;41589;51.196;7.074;2024-02-26T09:38:14;97428.97;;;9.12;69.23
19576;BME280;41589;51.196;7.074;2024-02-26T09:43:17;97444.50;;;9.07;69.50
19576;BME280;41589;51.196;7.074;2024-02-26T09:48:19;97451.22;;;9.15;69.27
19576;BME280;41589;51.196;7.074;2024-02-26T09:53:21;97455.84;;;9.18;69.58
19576;BME280;41589;51.196;7.074;2024-02-26T09:58:22;97457.44;;;9.25;69.36
19576;BME280;41589;51.196;7.074;2024-02-26T10:03:25;97477.94;;;9.31;69.35
19576;BME280;41589;51.196;7.074;2024-02-26T10:08:28;97468.81;;;9.36;69.53
19576;BME280;41589;51.196;7.074;2024-02-26T10:13:29;97480.59;;;9.40;68.73
19576;BME280;41589;51.196;7.074;2024-02-26T10:18:49;97487.47;;;9.39;69.48
19576;BME280;41589;51.196;7.074;2024-02-26T10:23:50;97486.44;;;9.37;69.06
19576;BME280;41589;51.196;7.074;2024-02-26T10:28:51;97488.34;;;9.51;68.97
19576;BME280;41589;51.196;7.074;2024-02-26T10:33:55;97496.50;;;9.49;68.69
19576;BME280;41589;51.196;7.074;2024-02-26T10:38:55;97508.41;;;9.38;68.62
19576;BME280;41589;51.196;7.074;2024-02-26T10:43:55;97506.97;;;9.48;69.07
19576;BME280;41589;51.196;7.074;2024-02-26T10:48:56;97504.13;;;9.69;69.04
19576;BME280;41589;51.196;7.074;2024-02-26T10:53:58;97515.56;;;9.65;69.35
19576;BME280;41589;51.196;7.074;2024-02-26T10:59:01;97527.22;;;9.78;68.84
19576;BME280;41589;51.196;7.074;2024-02-26T11:04:02;97531.91;;;9.87;69.04
19576;BME280;41589;51.196;7.074;2024-02-26T11:09:03;97535.41;;;10.08;68.77
19576;BME280;41589;51.196;7.074;2024-02-26T11:14:03;97542.19;;;9.96;69.18
19576;BME280;41589;51.196;7.074;2024-02-26T11:19:06;97544.25;;;9.95;68.87
19576;BME280;41589;51.196;7.074;2024-02-26T11:24:11;97543.06;;;10.07;69.55
19576;BME280;41589;51.196;7.074;2024-02-26T11:29:14;97537.84;;;9.95;68.75
19576;BME280;41589;51.196;7.074;2024-02-26T11:34:16;97544.38;;;9.80;69.60
19576;BME280;41589;51.196;7.074;2024-02-26T11:39:17;97547.28;;;9.92;69.07
19576;BME280;41589;51.196;7.074;2024-02-26T11:44:29;97553.41;;;9.90;70.27
19576;BME280;41589;51.196;7.074;2024-02-26T11:49:32;97549.25;;;9.85;69.15
19576;BME280;41589;51.196;7.074;2024-02-26T11:54:50;97552.84;;;9.66;69.30
19576;BME280;41589;51.196;7.074;2024-02-26T12:00:12;97563.53;;;9.62;69.04
19576;BME280;41589;51.196;7.074;2024-02-26T12:05:19;97567.41;;;9.44;70.82
19576;BME280;41589;51.196;7.074;2024-02-26T12:10:26;97569.44;;;9.64;70.19
19576;BME280;41589;51.196;7.074;2024-02-26T12:15:32;97573.66;;;9.53;70.46
19576;BME280;41589;51.196;7.074;2024-02-26T12:20:34;97579.50;;;9.50;70.87
19576;BME280;41589;51.196;7.074;2024-02-26T12:25:35;97582.22;;;9.65;70.45
19576;BME280;41589;51.196;7.074;2024-02-26T12:30:35;97573.50;;;9.63;70.59
19576;BME280;41589;51.196;7.074;2024-02-26T12:35:36;97579.22;;;9.48;71.05
19576;BME280;41589;51.196;7.074;2024-02-26T12:40:36;97596.22;;;9.59;70.76
19576;BME280;41589;51.196;7.074;2024-02-26T12:45:39;97596.25;;;9.85;71.31
19576;BME280;41589;51.196;7.074;2024-02-26T12:50:44;97603.50;;;9.92;70.88
19576;BME280;41589;51.196;7.074;2024-02-26T12:55:45;97607.22;;;9.83;70.73
19576;BME280;41589;51.196;7.074;2024-02-26T13:00:45;97618.56;;;9.89;71.28
19576;BME280;41589;51.196;7.074;2024-02-26T13:05:48;97623.06;;;9.80;70.50
19576;BME280;41589;51.196;7.074;2024-02-26T13:10:48;97636.97;;;9.90;71.72
19576;BME280;41589;51.196;7.074;2024-02-26T13:16:01;97639.53;;;9.93;71.40
19576;BME280;41589;51.196;7.074;2024-02-26T13:21:12;97642.06;;;9.91;71.86
19576;BME280;41589;51.196;7.074;2024-02-26T13:26:13;97651.00;;;9.90;71.60
19576;BME280;41589;51.196;7.074;2024-02-26T13:31:14;97659.53;;;10.21;71.40
19576;BME280;41589;51.196;7.074;2024-02-26T13:36:15;97661.44;;;10.35;71.77
19576;BME280;41589;51.196;7.074;2024-02-26T13:41:17;97663.31;;;10.44;71.21
19576;BME280;41589;51.196;7.074;2024-02-26T13:46:18;97668.63;;;10.36;71.18
19576;BME280;41589;51.196;7.074;2024-02-26T13:51:18;97666.56;;;10.37;71.01
19576;BME280;41589;51.196;7.074;2024-02-26T13:56:18;97676.63;;;10.43;70.43
19576;BME280;41589;51.196;7.074;2024-02-26T14:01:19;97680.13;;;10.38;70.21
19576;BME280;41589;51.196;7.074;2024-02-26T14:06:19;97693.00;;;10.45;70.61
19576;BME280;41589;51.196;7.074;2024-02-26T14:11:19;97696.09;;;10.47;70.47
19576;BME280;41589;51.196;7.074;2024-02-26T14:16:20;97699.94;;;10.50;70.55
19576;BME280;41589;51.196;7.074;2024-02-26T14:21:20;97691.84;;;10.57;69.97
19576;BME280;41589;51.196;7.074;2024-02-26T14:26:21;97693.00;;;10.45;70.81
19576;BME280;41589;51.196;7.074;2024-02-26T14:31:22;97707.34;;;10.47;69.61
19576;BME280;41589;51.196;7.074;2024-02-26T14:36:22;97705.75;;;10.40;69.57
19576;BME280;41589;51.196;7.074;2024-02-26T14:41:23;97715.16;;;10.37;69.88
19576;BME280;41589;51.196;7.074;2024-02-26T14:46:23;97735.84;;;10.34;70.13
19576;BME280;41589;51.196;7.074;2024-02-26T14:51:23;97744.50;;;10.31;69.31
19576;BME280;41589;51.196;7.074;2024-02-26T14:56:24;97745.06;;;10.35;69.31
19576;BME280;41589;51.196;7.074;2024-02-26T15:01:24;97739.34;;;10.29;69.23
19576;BME280;41589;51.196;7.074;2024-02-26T15:06:25;97748.78;;;10.26;68.49
19576;BME280;41589;51.196;7.074;2024-02-26T15:11:26;97748.16;;;10.37;69.04
19576;BME280;41589;51.196;7.074;2024-02-26T15:16:26;97759.84;;;10.56;67.45
19576;BME280;41589;51.196;7.074;2024-02-26T15:21:27;97765.91;;;10.49;66.99
19576;BME280;41589;51.196;7.074;2024-02-26T15:26:27;97773.84;;;10.50;67.38
19576;BME280;41589;51.196;7.074;2024-02-26T15:31:27;97773.72;;;10.39;66.99
19576;BME280;41589;51.196;7.074;2024-02-26T15:36:28;97783.03;;;10.25;66.77
19576;BME280;41589;51.196;7.074;2024-02-26T15:41:28;97788.03;;;10.15;67.15
19576;BME280;41589;51.196;7.074;2024-02-26T15:46:28;97792.88;;;10.14;67.04
19576;BME280;41589;51.196;7.074;2024-02-26T15:51:29;97803.44;;;9.99;67.26
19576;BME280;41589;51.196;7.074;2024-02-26T15:56:29;97814.84;;;9.96;66.99
19576;BME280;41589;51.196;7.074;2024-02-26T16:01:30;97821.75;;;9.95;67.40
19576;BME280;41589;51.196;7.074;2024-02-26T16:06:37;97827.59;;;9.91;67.40
19576;BME280;41589;51.196;7.074;2024-02-26T16:11:38;97843.69;;;9.91;67.49
19576;BME280;41589;51.196;7.074;2024-02-26T16:16:49;97843.19;;;9.92;67.57
19576;BME280;41589;51.196;7.074;2024-02-26T16:21:51;97864.03;;;9.85;67.06
19576;BME280;41589;51.196;7.074;2024-02-26T16:26:52;97863.34;;;9.76;67.79
19576;BME280;41589;51.196;7.074;2024-02-26T16:31:52;97874.91;;;9.63;67.61
19576;BME280;41589;51.196;7.074;2024-02-26T16:36:52;97892.84;;;9.51;67.67
19576;BME280;41589;51.196;7.074;2024-02-26T16:41:53;97882.66;;;9.53;67.17
19576;BME280;41589;51.196;7.074;2024-02-26T16:46:53;97892.66;;;9.40;67.00
19576;BME280;41589;51.196;7.074;2024-02-26T16:51:54;97913.09;;;9.40;67.33
19576;BME280;41589;51.196;7.074;2024-02-26T16:56:54;97926.25;;;9.49;67.14
19576;BME280;41589;51.196;7.074;2024-02-26T17:01:55;97918.22;;;9.42;65.62
19576;BME280;41589;51.196;7.074;2024-02-26T17:06:56;97943.78;;;9.29;65.91
19576;BME280;41589;51.196;7.074;2024-02-26T17:11:56;97942.03;;;9.32;66.48
19576;BME280;41589;51.196;7.074;2024-02-26T17:16:57;97960.91;;;9.16;65.86
19576;BME280;41589;51.196;7.074;2024-02-26T17:22:00;97960.84;;;9.02;65.47
19576;BME280;41589;51.196;7.074;2024-02-26T17:27:01;97983.03;;;8.99;65.71
19576;BME280;41589;51.196;7.074;2024-02-26T17:32:01;97972.81;;;8.87;65.68
19576;BME280;41589;51.196;7.074;2024-02-26T17:37:03;97984.53;;;8.86;65.67
19576;BME280;41589;51.196;7.074;2024-02-26T17:42:04;98000.69;;;8.91;66.07
19576;BME280;41589;51.196;7.074;2024-02-26T17:47:05;98012.88;;;8.88;66.25
19576;BME280;41589;51.196;7.074;2024-02-26T17:52:05;98030.22;;;8.86;65.52
19576;BME280;41589;51.196;7.074;2024-02-26T17:57:06;98037.56;;;8.84;65.86
19576;BME280;41589;51.196;7.074;2024-02-26T18:02:06;98054.66;;;8.62;66.54
19576;BME280;41589;51.196;7.074;2024-02-26T18:07:07;98054.78;;;8.67;67.15
19576;BME280;41589;51.196;7.074;2024-02-26T18:12:08;98078.16;;;8.74;66.79
19576;BME280;41589;51.196;7.074;2024-02-26T18:17:09;98070.19;;;8.72;67.46
19576;BME280;41589;51.196;7.074;2024-02-26T18:22:09;98083.81;;;8.64;67.43
19576;BME280;41589;51.196;7.074;2024-02-26T18:27:09;98090.06;;;8.50;67.58
19576;BME280;41589;51.196;7.074;2024-02-26T18:32:10;98093.06;;;8.47;67.92
19576;BME280;41589;51.196;7.074;2024-02-26T18:37:11;98107.41;;;8.39;68.40
19576;BME280;41589;51.196;7.074;2024-02-26T18:42:11;98118.94;;;8.41;68.94
19576;BME280;41589;51.196;7.074;2024-02-26T18:47:14;98120.97;;;8.41;69.07
19576;BME280;41589;51.196;7.074;2024-02-26T18:52:16;98131.72;;;8.43;69.00
19576;BME280;41589;51.196;7.074;2024-02-26T18:57:17;98143.84;;;8.49;68.49
19576;BME280;41589;51.196;7.074;2024-02-26T19:02:17;98157.09;;;8.39;68.92
19576;BME280;41589;51.196;7.074;2024-02-26T19:07:18;98154.94;;;8.43;69.09
19576;BME280;41589;51.196;7.074;2024-02-26T19:12:18;98156.97;;;8.33;69.09
19576;BME280;41589;51.196;7.074;2024-02-26T19:17:20;98174.88;;;8.36;69.53
19576;BME280;41589;51.196;7.074;2024-02-26T19:22:22;98181.28;;;8.36;69.42
19576;BME280;41589;51.196;7.074;2024-02-26T19:27:22;98186.09;;;8.45;69.32
19576;BME280;41589;51.196;7.074;2024-02-26T19:32:22;98190.75;;;8.39;69.08
19576;BME280;41589;51.196;7.074;2024-02-26T19:37:27;98204.78;;;8.39;69.10
19576;BME280;41589;51.196;7.074;2024-02-26T19:42:27;98206.69;;;8.33;69.04
19576;BME280;41589;51.196;7.074;2024-02-26T19:47:28;98211.34;;;8.36;69.11
19576;BME280;41589;51.196;7.074;2024-02-26T19:52:28;98218.19;;;8.35;68.91
19576;BME280;41589;51.196;7.074;2024-02-26T19:57:28;98220.22;;;8.34;68.72
19576;BME280;41589;51.196;7.074;2024-02-26T20:02:29;98244.03;;;8.39;68.96
19576;BME280;41589;51.196;7.074;2024-02-26T20:07:29;98233.59;;;8.49;68.69
19576;BME280;41589;51.196;7.074;2024-02-26T20:12:30;98249.81;;;8.35;68.29
19576;BME280;41589;51.196;7.074;2024-02-26T20:17:31;98265.09;;;8.44;68.51
19576;BME280;41589;51.196;7.074;2024-02-26T20:22:32;98258.34;;;8.50;68.62
19576;BME280;41589;51.196;7.074;2024-02-26T20:27:32;98276.31;;;8.44;68.57
19576;BME280;41589;51.196;7.074;2024-02-26T20:32:32;98285.03;;;8.46;68.95
19576;BME280;41589;51.196;7.074;2024-02-26T20:37:34;98282.22;;;8.46;68.70
19576;BME280;41589;51.196;7.074;2024-02-26T20:42:34;98288.75;;;8.52;68.79
19576;BME280;41589;51.196;7.074;2024-02-26T20:47:35;98298.09;;;8.49;68.77
19576;BME280;41589;51.196;7.074;2024-02-26T20:52:35;98306.69;;;8.45;68.66
19576;BME280;41589;51.196;7.074;2024-02-26T20:57:35;98314.31;;;8.54;68.53
19576;BME280;41589;51.196;7.074;2024-02-26T21:02:36;98328.34;;;8.45;68.65
19576;BME280;41589;51.196;7.074;2024-02-26T21:07:36;98332.41;;;8.44;68.42
19576;BME280;41589;51.196;7.074;2024-02-26T21:12:37;98341.44;;;8.57;68.50
19576;BME280;41589;51.196;7.074;2024-02-26T21:17:37;98347.03;;;8.57;68.54
19576;BME280;41589;51.196;7.074;2024-02-26T21:22:38;98341.72;;;8.50;68.75
19576;BME280;41589;51.196;7.074;2024-02-26T21:27:39;98366.50;;;8.51;68.52
19576;BME280;41589;51.196;7.074;2024-02-26T21:32:39;98367.91;;;8.47;68.62
19576;BME280;41589;51.196;7.074;2024-02-26T21:37:39;98373.34;;;8.50;68.53
19576;BME280;41589;51.196;7.074;2024-02-26T21:42:40;98383.31;;;8.51;68.19
19576;BME280;41589;51.196;7.074;2024-02-26T21:47:43;98397.22;;;8.64;68.09
19576;BME280;41589;51.196;7.074;2024-02-26T21:52:44;98404.38;;;8.56;68.27
19576;BME280;41589;51.196;7.074;2024-02-26T21:57:44;98403.91;;;8.57;68.25
19576;BME280;41589;51.196;7.074;2024-02-26T22:02:45;98405.63;;;8.55;68.58
19576;BME280;41589;51.196;7.074;2024-02-26T22:07:45;98422.00;;;8.56;68.14
19576;BME280;41589;51.196;7.074;2024-02-26T22:12:45;98424.66;;;8.69;68.38
19576;BME280;41589;51.196;7.074;2024-02-26T22:17:46;98421.69;;;8.54;68.16
19576;BME280;41589;51.196;7.074;2024-02-26T22:22:47;98439.59;;;8.57;68.19
19576;BME280;41589;51.196;7.074;2024-02-26T22:27:47;98437.41;;;8.61;68.26
19576;BME280;41589;51.196;7.074;2024-02-26T22:32:47;98438.06;;;8.74;68.53
19576;BME280;41589;51.196;7.074;2024-02-26T22:37:48;98459.25;;;8.66;67.87
19576;BME280;41589;51.196;7.074;2024-02-26T22:42:48;98458.94;;;8.64;68.11
19576;BME280;41589;51.196;7.074;2024-02-26T22:47:55;98463.75;;;8.54;68.31
19576;BME280;41589;51.196;7.074;2024-02-26T22:52:55;98467.94;;;8.50;68.59
19576;BME280;41589;51.196;7.074;2024-02-26T22:57:56;98477.91;;;8.41;68.72
19576;BME280;41589;51.196;7.074;2024-02-26T23:02:58;98483.22;;;8.49;69.33
19576;BME280;41589;51.196;7.074;2024-02-26T23:07:58;98480.06;;;8.37;69.33
19576;BME280;41589;51.196;7.074;2024-02-26T23:12:59;98486.75;;;8.31;70.39
19576;BME280;41589;51.196;7.074;2024-02-26T23:18:00;98494.31;;;8.21;70.53
19576;BME280;41589;51.196;7.074;2024-02-26T23:23:01;98504.19;;;8.26;71.37
19576;BME280;41589;51.196;7.074;2024-02-26T23:28:03;98516.72;;;8.12;71.53
19576;BME280;41589;51.196;7.074;2024-02-26T23:33:05;98508.56;;;7.96;72.70
19576;BME280;41589;51.196;7.074;2024-02-26T23:38:05;98530.97;;;7.96;73.25
19576;BME280;41589;51.196;7.074;2024-02-26T23:43:06;98526.97;;;8.06;73.42
19576;BME280;41589;51.196;7.074;2024-02-26T23:48:06;98536.94;;;8.07;73.26
19576;BME280;41589;51.196;7.074;2024-02-26T23:53:08;98535.53;;;8.02;73.80
19576;BME280;41589;51.196;7.074;2024-02-26T23:58:08;98532.84;;;7.99;74.35
